createdAt,value
2019-05-19T00:00:24.418Z,69.30
2019-05-19T00:02:53.383Z,69.70
2019-05-19T00:05:22.264Z,69.90
2019-05-19T00:07:51.179Z,70.20
2019-05-19T00:10:20.059Z,70.10
2019-05-19T00:12:49.000Z,70.20
2019-05-19T00:15:17.883Z,71.00
2019-05-19T00:17:46.817Z,70.70
2019-05-19T00:20:17.274Z,70.50
2019-05-19T00:22:47.244Z,70.10
2019-05-19T00:25:16.151Z,70.10
2019-05-19T00:27:45.097Z,70.40
2019-05-19T00:30:14.400Z,70.10
2019-05-19T00:32:43.436Z,70.10
2019-05-19T00:35:12.518Z,70.40
2019-05-19T00:37:41.454Z,69.70
2019-05-19T00:40:10.597Z,69.60
2019-05-19T00:42:39.463Z,70.00
2019-05-19T00:45:09.201Z,69.50
2019-05-19T00:47:38.090Z,70.80
2019-05-19T00:50:08.792Z,71.10
2019-05-19T00:52:37.686Z,71.20
2019-05-19T00:55:06.811Z,70.80
2019-05-19T00:57:36.598Z,70.60
2019-05-19T01:00:09.824Z,70.70
2019-05-19T01:02:37.916Z,71.10
2019-05-19T01:05:07.625Z,70.80
2019-05-19T01:07:36.647Z,71.00
2019-05-19T01:10:09.090Z,70.30
2019-05-19T01:12:38.033Z,71.30
2019-05-19T01:15:09.206Z,71.60
2019-05-19T01:17:38.136Z,71.30
2019-05-19T01:20:07.815Z,71.60
2019-05-19T01:22:36.744Z,71.20
2019-05-19T01:25:08.871Z,71.70
2019-05-19T01:27:38.009Z,71.90
2019-05-19T01:30:08.981Z,72.10
2019-05-19T01:32:37.899Z,72.50
2019-05-19T01:35:06.888Z,72.10
2019-05-19T01:37:35.927Z,72.40
2019-05-19T01:40:09.323Z,72.50
2019-05-19T01:42:38.256Z,72.70
2019-05-19T01:45:09.219Z,73.00
2019-05-19T01:47:38.091Z,73.20
2019-05-19T01:50:17.433Z,73.20
2019-05-19T01:52:39.615Z,72.80
2019-05-19T01:55:09.048Z,72.50
2019-05-19T01:57:37.928Z,72.50
2019-05-19T02:00:10.824Z,72.60
2019-05-19T02:02:39.820Z,73.20
2019-05-19T02:05:10.059Z,73.00
2019-05-19T02:07:38.947Z,72.90
2019-05-19T02:10:09.902Z,73.10
2019-05-19T02:12:38.866Z,72.80
2019-05-19T02:15:08.484Z,72.70
2019-05-19T02:17:37.970Z,73.50
2019-05-19T02:20:08.211Z,72.70
2019-05-19T02:22:37.135Z,73.10
2019-05-19T02:25:06.215Z,73.30
2019-05-19T02:27:35.138Z,73.80
2019-05-19T02:30:08.815Z,73.90
2019-05-19T02:32:37.750Z,74.00
2019-05-19T02:35:07.529Z,74.10
2019-05-19T02:37:36.457Z,74.30
2019-05-19T02:40:08.779Z,74.60
2019-05-19T02:42:40.647Z,74.50
2019-05-19T02:45:10.637Z,74.40
2019-05-19T02:47:42.523Z,74.90
2019-05-19T02:50:12.410Z,74.60
2019-05-19T02:52:43.615Z,75.00
2019-05-19T02:55:12.629Z,75.60
2019-05-19T02:57:42.745Z,75.90
2019-05-19T03:00:12.021Z,75.50
2019-05-19T03:02:40.962Z,74.90
2019-05-19T03:05:10.048Z,75.00
2019-05-19T03:07:38.972Z,74.90
2019-05-19T03:10:08.154Z,74.40
2019-05-19T03:12:37.068Z,74.90
2019-05-19T03:15:06.952Z,75.70
2019-05-19T03:17:35.894Z,77.10
2019-05-19T03:20:06.572Z,77.80
2019-05-19T03:22:35.518Z,78.00
2019-05-19T03:25:08.056Z,78.60
2019-05-19T03:27:36.980Z,78.40
2019-05-19T03:30:26.064Z,78.10
2019-05-19T03:33:11.636Z,77.70
2019-05-19T03:35:40.641Z,77.70
2019-05-19T03:38:09.607Z,77.80
2019-05-19T03:40:38.536Z,77.50
2019-05-19T03:43:07.430Z,77.40
2019-05-19T03:45:36.342Z,77.00
2019-05-19T03:48:05.345Z,76.90
2019-05-19T03:50:34.260Z,77.40
2019-05-19T03:53:03.193Z,76.90
2019-05-19T03:55:32.148Z,76.10
2019-05-19T03:58:01.023Z,75.70
2019-05-19T04:00:29.970Z,75.30
2019-05-19T04:02:58.867Z,74.50
2019-05-19T04:05:27.777Z,73.50
2019-05-19T04:07:56.666Z,73.30
2019-05-19T04:10:26.303Z,73.60
2019-05-19T04:12:55.191Z,73.50
2019-05-19T04:15:24.120Z,72.80
2019-05-19T04:17:53.004Z,72.80
2019-05-19T04:20:21.913Z,72.10
2019-05-19T04:22:50.851Z,71.50
2019-05-19T04:25:19.737Z,72.20
2019-05-19T04:27:48.670Z,70.80
2019-05-19T04:30:17.667Z,70.20
2019-05-19T04:32:46.589Z,70.20
2019-05-19T04:35:15.768Z,71.20
2019-05-19T04:37:44.701Z,71.30
2019-05-19T04:40:13.677Z,71.40
2019-05-19T04:42:42.613Z,71.60
2019-05-19T04:45:11.612Z,71.50
2019-05-19T04:47:40.527Z,71.20
2019-05-19T04:50:09.660Z,71.70
2019-05-19T04:52:38.547Z,72.00
2019-05-19T04:55:07.870Z,72.60
2019-05-19T04:57:37.055Z,72.10
2019-05-19T05:00:08.564Z,72.30
2019-05-19T05:02:37.433Z,72.90
2019-05-19T05:05:09.551Z,73.90
2019-05-19T05:07:38.444Z,74.20
2019-05-19T05:10:07.887Z,74.40
2019-05-19T05:12:36.773Z,74.40
2019-05-19T05:15:07.004Z,74.40
2019-05-19T05:17:37.429Z,73.60
2019-05-19T05:20:07.608Z,73.30
2019-05-19T05:22:36.501Z,73.70
2019-05-19T05:25:07.694Z,74.30
2019-05-19T05:27:36.588Z,74.20
2019-05-19T05:30:09.846Z,74.60
2019-05-19T05:32:37.885Z,74.10
2019-05-19T05:35:07.139Z,73.90
2019-05-19T05:37:36.035Z,74.00
2019-05-19T05:40:09.760Z,73.40
2019-05-19T05:42:38.637Z,72.60
2019-05-19T05:45:07.986Z,72.60
2019-05-19T05:47:36.894Z,72.60
2019-05-19T05:50:08.035Z,72.50
2019-05-19T05:52:38.841Z,72.10
2019-05-19T05:55:07.920Z,71.90
2019-05-19T05:57:36.802Z,72.10
2019-05-19T06:00:08.686Z,71.80
2019-05-19T06:02:37.595Z,71.40
2019-05-19T06:05:07.505Z,71.70
2019-05-19T06:07:36.440Z,70.60
2019-05-19T06:10:07.537Z,70.70
2019-05-19T06:12:36.470Z,70.10
2019-05-19T06:15:06.263Z,71.10
2019-05-19T06:17:35.193Z,70.20
2019-05-19T06:20:06.007Z,70.40
2019-05-19T06:22:34.943Z,70.40
2019-05-19T06:25:04.339Z,71.20
2019-05-19T06:27:33.290Z,70.00
2019-05-19T06:30:02.184Z,70.30
2019-05-19T06:32:32.703Z,70.10
2019-05-19T06:35:01.663Z,69.60
2019-05-19T06:37:30.657Z,69.30
2019-05-19T06:39:59.543Z,69.30
2019-05-19T06:42:28.435Z,68.50
2019-05-19T06:44:57.415Z,68.20
2019-05-19T06:47:26.307Z,68.30
2019-05-19T06:49:55.271Z,67.20
2019-05-19T06:52:24.206Z,67.60
2019-05-19T06:54:53.136Z,66.70
2019-05-19T06:57:22.032Z,66.40
2019-05-19T06:59:50.964Z,66.40
2019-05-19T07:02:19.965Z,65.50
2019-05-19T07:04:48.928Z,65.80
2019-05-19T07:07:17.815Z,65.10
2019-05-19T07:09:58.062Z,64.70
2019-05-19T07:12:17.322Z,65.30
2019-05-19T07:14:46.251Z,65.30
2019-05-19T07:17:15.176Z,66.70
2019-05-19T07:19:44.191Z,65.30
2019-05-19T07:22:13.127Z,65.50
2019-05-19T07:24:42.049Z,67.50
2019-05-19T07:27:10.972Z,66.90
2019-05-19T07:29:39.930Z,65.90
2019-05-19T07:32:08.857Z,67.00
2019-05-19T07:34:37.745Z,67.10
2019-05-19T07:37:06.677Z,66.10
2019-05-19T07:39:35.594Z,66.30
2019-05-19T07:42:04.618Z,65.70
2019-05-19T07:44:33.512Z,66.40
2019-05-19T07:47:02.556Z,65.90
2019-05-19T07:49:31.443Z,65.30
2019-05-19T07:52:00.428Z,63.30
2019-05-19T07:54:29.326Z,64.80
2019-05-19T07:56:58.280Z,64.90
2019-05-19T07:59:27.186Z,63.70
2019-05-19T08:01:56.119Z,63.80
2019-05-19T08:04:25.068Z,62.90
2019-05-19T08:06:53.963Z,62.50
2019-05-19T08:09:22.904Z,62.70
2019-05-19T08:11:51.793Z,64.90
2019-05-19T08:14:20.749Z,63.40
2019-05-19T08:16:49.659Z,63.80
2019-05-19T08:19:18.585Z,62.40
2019-05-19T08:21:47.482Z,61.70
2019-05-19T08:24:16.438Z,59.30
2019-05-19T08:26:45.305Z,62.00
2019-05-19T08:29:14.243Z,61.10
2019-05-19T08:31:43.136Z,59.70
2019-05-19T08:34:12.174Z,59.00
2019-05-19T08:36:41.123Z,60.00
2019-05-19T08:39:10.037Z,58.60
2019-05-19T08:41:38.996Z,57.60
2019-05-19T08:44:07.898Z,57.70
2019-05-19T08:46:36.841Z,57.70
2019-05-19T08:49:05.724Z,59.30
2019-05-19T08:51:34.657Z,58.60
2019-05-19T08:54:14.515Z,58.40
2019-05-19T08:56:34.129Z,60.30
2019-05-19T08:59:03.019Z,60.10
2019-05-19T09:01:31.970Z,58.50
2019-05-19T09:06:53.827Z,57.30
2019-05-19T09:09:22.708Z,56.90
2019-05-19T09:11:51.642Z,56.00
2019-05-19T09:14:20.531Z,54.40
2019-05-19T09:16:50.556Z,55.30
2019-05-19T09:19:19.471Z,55.30
2019-05-19T09:21:48.406Z,57.10
2019-05-19T09:24:29.576Z,57.30
2019-05-19T09:26:48.908Z,57.20
2019-05-19T09:29:18.164Z,55.60
2019-05-19T09:31:47.295Z,54.60
2019-05-19T09:34:16.236Z,53.70
2019-05-19T09:36:45.121Z,55.40
2019-05-19T09:39:25.844Z,53.90
2019-05-19T09:41:54.755Z,53.40
2019-05-19T09:44:24.640Z,54.90
2019-05-19T09:46:54.008Z,53.00
2019-05-19T09:49:32.585Z,54.30
2019-05-19T09:52:02.562Z,54.90
2019-05-19T09:54:44.087Z,55.70
2019-05-19T09:57:03.162Z,55.30
2019-05-19T09:59:32.709Z,55.70
2019-05-19T10:02:01.679Z,54.30
2019-05-19T10:04:30.571Z,54.90
2019-05-19T10:06:59.792Z,54.30
2019-05-19T10:09:57.420Z,54.00
2019-05-19T10:12:26.344Z,54.50
2019-05-19T10:14:55.440Z,54.70
2019-05-19T10:17:24.492Z,56.20
2019-05-19T10:19:53.370Z,56.90
2019-05-19T10:22:22.305Z,56.20
2019-05-19T10:25:10.428Z,55.10
2019-05-19T10:27:22.268Z,54.60
2019-05-19T10:29:51.151Z,54.50
2019-05-19T10:32:20.033Z,55.80
2019-05-19T10:34:48.994Z,55.20
2019-05-19T10:37:17.860Z,54.10
2019-05-19T10:39:46.792Z,55.90
2019-05-19T10:42:15.813Z,54.70
2019-05-19T10:44:44.824Z,53.30
2019-05-19T10:47:13.739Z,54.40
2019-05-19T10:49:43.155Z,54.10
2019-05-19T10:52:12.220Z,55.40
2019-05-19T10:54:41.217Z,55.00
2019-05-19T10:57:10.146Z,54.70
2019-05-19T10:59:39.028Z,53.70
2019-05-19T11:02:11.640Z,51.90
2019-05-19T11:04:41.285Z,52.10
2019-05-19T11:07:10.292Z,51.60
2019-05-19T11:09:39.195Z,52.20
2019-05-19T11:12:08.126Z,52.10
2019-05-19T11:14:37.049Z,52.70
2019-05-19T11:17:05.986Z,51.50
2019-05-19T11:19:34.877Z,52.30
2019-05-19T11:22:03.815Z,50.10
2019-05-19T11:24:32.745Z,49.20
2019-05-19T11:27:01.623Z,49.40
2019-05-19T11:29:30.544Z,50.90
2019-05-19T11:31:59.431Z,49.50
2019-05-19T11:34:28.369Z,49.20
2019-05-19T11:36:57.266Z,48.50
2019-05-19T11:39:26.197Z,49.80
2019-05-19T11:41:55.112Z,47.40
2019-05-19T11:44:24.078Z,48.40
2019-05-19T11:46:52.971Z,47.40
2019-05-19T11:49:21.931Z,49.90
2019-05-19T11:51:50.814Z,48.60
2019-05-19T11:54:19.822Z,48.60
2019-05-19T11:56:48.775Z,47.40
2019-05-19T11:59:17.658Z,47.70
2019-05-19T12:01:46.591Z,47.60
2019-05-19T12:04:15.476Z,48.80
2019-05-19T12:06:44.422Z,46.10
2019-05-19T12:09:13.317Z,44.80
2019-05-19T12:11:42.258Z,44.40
2019-05-19T12:14:11.157Z,47.40
2019-05-19T12:16:40.136Z,45.70
2019-05-19T12:19:09.091Z,47.70
2019-05-19T12:21:38.002Z,44.40
2019-05-19T12:24:06.933Z,44.60
2019-05-19T12:26:35.821Z,44.60
2019-05-19T12:29:04.869Z,44.50
2019-05-19T12:31:33.754Z,44.80
2019-05-19T12:34:02.732Z,43.20
2019-05-19T12:36:31.634Z,44.00
2019-05-19T12:39:00.549Z,43.10
2019-05-19T12:41:29.498Z,40.90
2019-05-19T12:43:58.443Z,40.30
2019-05-19T12:46:27.328Z,41.70
2019-05-19T12:48:56.349Z,39.90
2019-05-19T12:51:26.913Z,41.60
2019-05-19T12:53:55.886Z,43.00
2019-05-19T12:56:38.705Z,43.80
2019-05-19T12:58:55.353Z,42.60
2019-05-19T13:01:24.249Z,42.40
2019-05-19T13:03:53.193Z,42.60
2019-05-19T13:06:22.086Z,44.10
2019-05-19T13:08:51.191Z,42.90
2019-05-19T13:11:20.659Z,40.90
2019-05-19T13:13:50.433Z,40.00
2019-05-19T13:16:19.598Z,41.40
2019-05-19T13:18:48.486Z,42.10
2019-05-19T13:21:17.412Z,40.90
2019-05-19T13:23:46.291Z,38.70
2019-05-19T13:26:15.227Z,40.50
2019-05-19T13:28:44.115Z,39.20
2019-05-19T13:31:13.057Z,38.70
2019-05-19T13:33:41.934Z,39.90
2019-05-19T13:36:10.876Z,39.10
2019-05-19T13:38:39.787Z,37.50
2019-05-19T13:41:09.277Z,38.00
2019-05-19T13:43:38.172Z,37.10
2019-05-19T13:46:07.298Z,38.20
2019-05-19T13:48:36.354Z,37.70
2019-05-19T13:51:05.319Z,39.10
2019-05-19T13:53:34.411Z,38.50
2019-05-19T13:56:03.330Z,38.80
2019-05-19T13:58:33.013Z,38.40
2019-05-19T14:01:02.002Z,37.80
2019-05-19T14:03:30.935Z,36.90
2019-05-19T14:05:59.825Z,36.60
2019-05-19T14:08:31.489Z,36.90
2019-05-19T14:11:00.404Z,37.00
2019-05-19T14:13:29.357Z,38.70
2019-05-19T14:15:58.215Z,37.10
2019-05-19T14:18:27.303Z,37.50
2019-05-19T14:20:56.191Z,36.20
2019-05-19T14:23:25.154Z,36.00
2019-05-19T14:25:58.212Z,35.50
2019-05-19T14:28:26.347Z,35.90
2019-05-19T14:30:55.211Z,35.60
2019-05-19T14:33:24.147Z,36.20
2019-05-19T14:35:53.038Z,37.20
2019-05-19T14:38:21.967Z,37.30
2019-05-19T14:40:50.855Z,37.60
2019-05-19T14:43:24.395Z,38.20
2019-05-19T14:45:53.296Z,40.40
2019-05-19T14:48:22.223Z,37.70
2019-05-19T14:50:51.158Z,35.80
2019-05-19T14:53:20.084Z,35.50
2019-05-19T14:55:48.968Z,35.30
2019-05-19T14:58:17.959Z,35.60
2019-05-19T15:00:48.143Z,36.20
2019-05-19T15:03:17.140Z,36.50
2019-05-19T15:05:46.036Z,37.60
2019-05-19T15:08:14.967Z,39.20
2019-05-19T15:10:43.902Z,39.30
2019-05-19T15:13:12.770Z,41.50
2019-05-19T15:15:41.684Z,38.10
2019-05-19T15:18:10.568Z,38.00
2019-05-19T15:20:39.498Z,39.10
2019-05-19T15:23:08.857Z,38.00
2019-05-19T15:25:37.806Z,38.60
2019-05-19T15:28:06.685Z,39.20
2019-05-19T15:30:35.633Z,38.10
2019-05-19T15:33:04.518Z,39.50
2019-05-19T15:35:33.609Z,42.50
2019-05-19T15:38:04.007Z,38.50
2019-05-19T15:40:32.930Z,37.70
2019-05-19T15:43:02.043Z,36.40
2019-05-19T15:45:31.114Z,36.70
2019-05-19T15:48:00.163Z,38.60
2019-05-19T15:50:29.120Z,33.20
2019-05-19T15:52:58.036Z,32.60
2019-05-19T15:55:26.938Z,31.80
2019-05-19T15:57:55.874Z,33.30
2019-05-19T16:00:24.857Z,33.00
2019-05-19T16:02:53.793Z,31.00
2019-05-19T16:05:22.682Z,31.30
2019-05-19T16:07:51.601Z,31.00
2019-05-19T16:10:20.662Z,32.60
2019-05-19T16:12:49.614Z,32.40
2019-05-19T16:15:18.640Z,35.00
2019-05-19T16:17:47.643Z,32.80
2019-05-19T16:20:16.518Z,32.00
2019-05-19T16:22:45.473Z,32.10
2019-05-19T16:25:15.950Z,32.60
2019-05-19T16:27:48.368Z,33.20
2019-05-19T16:30:18.587Z,33.40
2019-05-19T16:32:47.486Z,34.70
2019-05-19T16:35:16.385Z,35.60
2019-05-19T16:37:45.273Z,36.00
2019-05-19T16:40:14.410Z,36.40
2019-05-19T16:42:43.331Z,36.10
2019-05-19T16:45:12.742Z,35.90
2019-05-19T16:47:41.623Z,36.20
2019-05-19T16:50:10.763Z,36.40
2019-05-19T16:52:39.762Z,36.40
2019-05-19T16:55:19.947Z,36.20
2019-05-19T16:57:48.823Z,37.20
2019-05-19T17:00:20.271Z,36.60
2019-05-19T17:02:49.186Z,37.60
2019-05-19T17:05:18.384Z,38.10
2019-05-19T17:07:47.318Z,38.40
2019-05-19T17:10:16.194Z,39.20
2019-05-19T17:12:45.112Z,39.10
2019-05-19T17:15:14.099Z,39.40
2019-05-19T17:17:43.035Z,40.10
2019-05-19T17:20:12.323Z,42.00
2019-05-19T17:22:41.265Z,42.80
2019-05-19T17:25:10.267Z,45.20
2019-05-19T17:27:39.204Z,46.50
2019-05-19T17:30:09.652Z,48.30
2019-05-19T17:32:38.619Z,48.70
2019-05-19T17:35:07.847Z,49.80
2019-05-19T17:37:36.715Z,50.50
2019-05-19T17:40:07.684Z,51.00
2019-05-19T17:42:37.301Z,51.70
2019-05-19T17:45:11.709Z,52.90
2019-05-19T17:47:40.608Z,53.00
2019-05-19T17:50:10.469Z,53.30
2019-05-19T17:52:39.352Z,54.10
2019-05-19T17:55:09.971Z,54.30
2019-05-19T17:57:39.156Z,54.70
2019-05-19T18:00:10.257Z,55.30
2019-05-19T18:02:39.335Z,56.00
2019-05-19T18:05:08.689Z,55.40
2019-05-19T18:07:37.556Z,56.10
2019-05-19T18:10:07.801Z,56.90
2019-05-19T18:12:36.695Z,57.80
2019-05-19T18:15:08.557Z,58.30
2019-05-19T18:17:37.530Z,58.40
2019-05-19T18:20:07.402Z,58.60
2019-05-19T18:22:36.311Z,58.20
2019-05-19T18:25:06.032Z,58.60
2019-05-19T18:27:34.975Z,58.40
2019-05-19T18:30:04.074Z,58.90
2019-05-19T18:32:32.998Z,58.60
2019-05-19T18:35:01.884Z,58.80
2019-05-19T18:37:30.856Z,59.30
2019-05-19T18:39:59.832Z,59.50
2019-05-19T18:42:28.759Z,59.60
2019-05-19T18:44:57.772Z,59.20
2019-05-19T18:47:26.739Z,59.10
2019-05-19T18:49:55.636Z,59.00
2019-05-19T18:52:24.550Z,59.10
2019-05-19T18:54:53.421Z,58.70
2019-05-19T18:57:22.353Z,58.80
2019-05-19T18:59:51.292Z,58.60
2019-05-19T19:02:20.447Z,58.80
2019-05-19T19:04:49.335Z,59.90
2019-05-19T19:07:18.300Z,61.30
2019-05-19T19:09:47.206Z,63.10
2019-05-19T19:12:16.147Z,65.60
2019-05-19T19:14:45.020Z,66.30
2019-05-19T19:17:13.967Z,68.50
2019-05-19T19:19:42.904Z,69.30
2019-05-19T19:22:14.629Z,74.60
2019-05-19T19:24:43.510Z,75.60
2019-05-19T19:27:12.427Z,76.10
2019-05-19T19:29:41.364Z,77.70
2019-05-19T19:32:10.412Z,78.30
2019-05-19T19:34:39.467Z,78.40
2019-05-19T19:37:08.427Z,79.70
2019-05-19T19:39:37.539Z,80.10
2019-05-19T19:42:06.440Z,77.80
2019-05-19T19:44:39.631Z,81.30
2019-05-19T19:47:07.668Z,83.00
2019-05-19T19:49:36.593Z,84.70
2019-05-19T19:52:05.476Z,84.70
2019-05-19T19:54:34.407Z,83.20
2019-05-19T19:57:03.295Z,82.70
2019-05-19T19:59:32.207Z,83.40
2019-05-19T20:02:01.084Z,83.00
2019-05-19T20:04:30.008Z,83.20
2019-05-19T20:06:58.899Z,84.00
2019-05-19T20:09:27.815Z,83.30
2019-05-19T20:11:56.747Z,83.20
2019-05-19T20:14:25.623Z,83.70
2019-05-19T20:16:54.559Z,83.80
2019-05-19T20:19:23.466Z,84.90
2019-05-19T20:21:52.379Z,84.30
2019-05-19T20:24:21.268Z,84.30
2019-05-19T20:26:50.319Z,84.50
2019-05-19T20:29:19.196Z,84.60
2019-05-19T20:31:48.123Z,83.60
2019-05-19T20:34:17.081Z,83.60
2019-05-19T20:36:45.972Z,84.30
2019-05-19T20:39:14.882Z,83.50
2019-05-19T20:41:43.811Z,84.80
2019-05-19T20:44:12.749Z,85.30
2019-05-19T20:46:41.628Z,85.50
2019-05-19T20:49:10.549Z,85.90
2019-05-19T20:51:39.428Z,86.10
2019-05-19T20:54:08.353Z,85.80
2019-05-19T20:56:37.240Z,86.30
2019-05-19T20:59:06.290Z,85.90
2019-05-19T21:01:35.166Z,86.30
2019-05-19T21:04:04.095Z,87.30
2019-05-19T21:06:32.980Z,87.30
2019-05-19T21:09:01.902Z,87.20
2019-05-19T21:11:30.822Z,88.10
2019-05-19T21:13:59.708Z,88.40
2019-05-19T21:16:28.639Z,87.80
2019-05-19T21:18:57.514Z,87.20
2019-05-19T21:21:26.436Z,88.80
2019-05-19T21:23:55.328Z,87.60
2019-05-19T21:26:24.270Z,88.80
2019-05-19T21:28:53.143Z,88.70
2019-05-19T21:31:22.067Z,87.60
2019-05-19T21:33:50.961Z,88.70
2019-05-19T21:36:19.884Z,88.20
2019-05-19T21:38:48.770Z,87.90
2019-05-19T21:41:17.697Z,88.00
2019-05-19T21:43:46.588Z,87.80
2019-05-19T21:46:15.511Z,88.40
2019-05-19T21:48:44.394Z,88.80
2019-05-19T21:51:13.320Z,89.20
2019-05-19T21:53:42.204Z,89.20
2019-05-19T21:56:11.138Z,88.80
2019-05-19T21:58:40.022Z,88.30
2019-05-19T22:01:22.252Z,89.20
2019-05-19T22:03:39.604Z,90.00
2019-05-19T22:06:08.533Z,89.80
2019-05-19T22:08:37.420Z,90.00
2019-05-19T22:11:06.348Z,90.10
2019-05-19T22:13:35.278Z,89.90
2019-05-19T22:16:12.983Z,89.80
2019-05-19T22:18:34.995Z,89.90
2019-05-19T22:21:03.934Z,90.30
2019-05-19T22:23:32.844Z,90.80
2019-05-19T22:26:01.728Z,90.70
2019-05-19T22:28:30.662Z,90.70
2019-05-19T22:30:59.549Z,90.70
2019-05-19T22:33:28.490Z,90.20
2019-05-19T22:35:57.383Z,90.20
2019-05-19T22:38:26.300Z,90.30
2019-05-19T22:40:55.194Z,89.90
2019-05-19T22:43:24.115Z,89.70
2019-05-19T22:45:52.994Z,89.00
2019-05-19T22:48:21.921Z,88.20
2019-05-19T22:50:50.791Z,88.60
2019-05-19T22:53:19.720Z,89.20
2019-05-19T22:55:48.611Z,89.30
2019-05-19T22:58:17.566Z,89.40
2019-05-19T23:00:46.412Z,88.90
2019-05-19T23:03:15.332Z,88.90
2019-05-19T23:05:44.215Z,88.90
2019-05-19T23:08:13.142Z,88.40
2019-05-19T23:10:42.216Z,88.10
2019-05-19T23:13:11.150Z,87.90
2019-05-19T23:15:40.131Z,87.50
2019-05-19T23:18:09.058Z,87.20
2019-05-19T23:20:37.953Z,87.30
2019-05-19T23:23:06.864Z,86.70
2019-05-19T23:25:35.745Z,87.30
2019-05-19T23:28:04.673Z,86.40
2019-05-19T23:30:33.555Z,87.00
2019-05-19T23:33:02.480Z,86.60
2019-05-19T23:35:31.357Z,86.40
2019-05-19T23:38:00.277Z,86.70
2019-05-19T23:40:29.203Z,86.40
2019-05-19T23:42:58.086Z,87.40
2019-05-19T23:45:27.007Z,86.10
2019-05-19T23:47:56.490Z,85.10
2019-05-19T23:50:25.414Z,86.20
2019-05-19T23:55:54.351Z,87.40
2019-05-19T23:58:23.283Z,86.90
